Time;durP1;ratioP1;P1;durP2;ratioP2;P2;SDS_P1;SDS_P2;PMS_P1;PMS_P2;Temp;Humidity;BMP_temperature;BMP_pressure;BME280_temperature;BME280_humidity;BME280_pressure;Samples;Min_cycle;Max_cycle;Signal;HPM_P1;HPM_P2
2022/07/11 00:02:10;;;;;;;;;;;;;;;22.36;47.40;101305.56;4963012;28;7010;-84
2022/07/11 00:04:36;;;;;;;;;;;;;;;22.38;47.11;101309.06;4977078;28;7062;-84
2022/07/11 00:07:03;;;;;;;;;;;;;;;22.41;47.28;101308.25;4962664;28;8714;-84
2022/07/11 00:09:30;;;;;;;;;;;;;;;22.43;47.14;101309.13;4951035;28;7287;-84
2022/07/11 00:11:56;;;;;;;;;;;;;;;22.44;47.28;101309.13;4965710;28;8957;-83
2022/07/11 00:14:22;;;;;;;;;;;;;;;;;;4936263;28;7240;-84
2022/07/11 00:16:48;;;;;;;;;;;;;;;22.48;47.56;101300.50;4948777;28;8423;-84
2022/07/11 00:19:15;;;;;;;;;;;;;;;22.50;47.08;101303.13;4947580;28;8714;-84
2022/07/11 00:21:40;;;;;;;;;;;;;;;22.53;47.24;101313.66;4958263;28;7560;-83
2022/07/11 00:24:07;;;;;;;;;;;;;;;22.53;47.16;101305.81;4935550;28;7114;-84
2022/07/11 00:26:37;;;;;;;;;;;;;;;22.55;47.14;101303.19;4978011;28;6992;-84
2022/07/11 00:29:06;;;;;;;;;;;;;;;22.54;47.36;101310.19;4951518;28;6880;-84
2022/07/11 00:31:32;;;;;;;;;;;;;;;22.56;47.39;101307.59;4982981;28;7029;-83
2022/07/11 00:33:58;;;;;;;;;;;;;;;22.58;47.24;101308.47;4969805;28;6988;-83
2022/07/11 00:36:24;;;;;;;;;;;;;;;22.57;47.32;101306.72;4976078;28;6988;-83
2022/07/11 00:38:50;;;;;;;;;;;;;;;22.57;47.31;101299.75;4936862;28;7094;-83
2022/07/11 00:41:19;;;;;;;;;;;;;;;22.55;47.50;101293.66;4955804;28;8527;-83
2022/07/11 00:43:53;;;;;;;;;;;;;;;22.56;47.78;101299.75;4947934;28;7252;-83
2022/07/11 00:46:20;;;;;;;;;;;;;;;22.56;47.80;101302.38;4947643;28;7245;-83
2022/07/11 00:48:46;;;;;;;;;;;;;;;22.53;47.75;101295.38;4927427;28;7222;-83
2022/07/11 00:51:12;;;;;;;;;;;;;;;22.50;47.69;101295.31;4968234;28;7017;-83
2022/07/11 00:53:40;;;;;;;;;;;;;;;22.52;47.89;101301.44;4961853;28;6977;-83
2022/07/11 00:56:07;;;;;;;;;;;;;;;22.53;47.92;101297.97;4964085;28;7001;-83
2022/07/11 00:58:35;;;;;;;;;;;;;;;22.54;47.49;101293.63;4952297;28;7370;-83
2022/07/11 01:01:02;;;;;;;;;;;;;;;22.54;47.68;101296.22;4977746;28;8442;-83
2022/07/11 01:03:28;;;;;;;;;;;;;;;22.53;47.79;101291.88;4946387;28;6980;-83
2022/07/11 01:05:53;;;;;;;;;;;;;;;22.52;47.87;101282.28;4933403;28;8493;-83
2022/07/11 01:08:19;;;;;;;;;;;;;;;22.49;47.90;101285.72;4951009;28;8566;-84
2022/07/11 01:10:46;;;;;;;;;;;;;;;22.45;47.92;101279.56;4949861;28;7190;-84
2022/07/11 01:13:11;;;;;;;;;;;;;;;22.44;47.93;101283.00;4950750;28;7177;-84
2022/07/11 01:15:37;;;;;;;;;;;;;;;22.45;48.27;101286.53;4979783;28;7976;-84
2022/07/11 01:18:03;;;;;;;;;;;;;;;22.45;48.16;101281.28;4933404;28;9035;-84
2022/07/11 01:20:29;;;;;;;;;;;;;;;22.45;48.28;101282.19;4975865;28;6883;-83
2022/07/11 01:23:05;;;;;;;;;;;;;;;22.44;48.63;101276.94;4942793;28;7174;-83
2022/07/11 01:25:31;;;;;;;;;;;;;;;22.43;48.51;101281.25;4953875;28;6982;-83
2022/07/11 01:28:08;;;;;;;;;;;;;;;22.43;48.53;101276.03;4951076;28;7127;-83
2022/07/11 01:30:35;;;;;;;;;;;;;;;22.42;48.65;101276.03;4958252;28;8247;-83
2022/07/11 01:33:01;;;;;;;;;;;;;;;22.41;48.85;101277.75;4961786;28;7373;-83
2022/07/11 01:35:29;;;;;;;;;;;;;;;22.41;48.60;101279.50;4973836;28;6934;-83
2022/07/11 01:37:54;;;;;;;;;;;;;;;22.42;48.80;101276.03;4979835;28;6939;-83
2022/07/11 01:40:20;;;;;;;;;;;;;;;22.41;49.05;101271.69;4981235;28;6933;-83
2022/07/11 01:42:46;;;;;;;;;;;;;;;22.41;49.03;101263.84;4965540;28;7712;-83
2022/07/11 01:45:13;;;;;;;;;;;;;;;22.42;49.05;101265.59;4965062;28;7196;-83
2022/07/11 01:47:39;;;;;;;;;;;;;;;22.43;48.73;101267.34;4953479;28;7367;-83
2022/07/11 01:50:07;;;;;;;;;;;;;;;22.44;48.60;101261.25;4947212;28;7270;-83
2022/07/11 01:52:33;;;;;;;;;;;;;;;22.44;48.74;101258.66;4940418;28;7094;-83
2022/07/11 01:54:58;;;;;;;;;;;;;;;22.42;48.79;101260.38;4966312;28;9136;-83
2022/07/11 01:57:24;;;;;;;;;;;;;;;22.41;48.69;101256.00;4955272;28;6923;-83
2022/07/11 01:59:50;;;;;;;;;;;;;;;22.39;49.15;101257.69;4956614;28;6948;-83
2022/07/11 02:02:16;;;;;;;;;;;;;;;22.36;49.14;101257.66;4972550;28;7150;-83
2022/07/11 02:04:42;;;;;;;;;;;;;;;22.34;49.23;101255.91;4935136;28;7058;-83
2022/07/11 02:07:11;;;;;;;;;;;;;;;22.33;49.00;101269.84;4967417;28;6967;-82
2022/07/11 02:09:39;;;;;;;;;;;;;;;22.31;48.93;101261.13;4936832;28;7234;-83
2022/07/11 02:12:06;;;;;;;;;;;;;;;22.26;49.32;101267.09;4961641;28;7182;-83
2022/07/11 02:14:31;;;;;;;;;;;;;;;22.20;49.56;101257.47;4954161;28;7017;-82
2022/07/11 02:16:58;;;;;;;;;;;;;;;22.16;49.69;101264.41;4980744;28;7369;-82
2022/07/11 02:19:24;;;;;;;;;;;;;;;22.11;50.05;101265.16;4965625;28;7330;-82
2022/07/11 02:21:49;;;;;;;;;;;;;;;22.06;49.78;101259.88;4980097;28;7829;-82
2022/07/11 02:24:15;;;;;;;;;;;;;;;22.01;50.06;101259.81;4963785;28;6992;-82
2022/07/11 02:26:40;;;;;;;;;;;;;;;21.96;49.94;101256.28;4953172;28;7158;-82
2022/07/11 02:29:06;;;;;;;;;;;;;;;21.88;50.01;101265.72;4951706;28;7620;-82
2022/07/11 02:31:32;;;;;;;;;;;;;;;21.78;50.31;101256.91;4964529;28;7211;-82
2022/07/11 02:33:57;;;;;;;;;;;;;;;21.71;50.54;101265.47;4924376;28;7023;-82
2022/07/11 02:36:23;;;;;;;;;;;;;;;21.64;50.66;101272.28;4929857;28;8819;-82
2022/07/11 02:38:49;;;;;;;;;;;;;;;21.59;50.51;101267.00;4963378;28;8563;-82
2022/07/11 02:41:14;;;;;;;;;;;;;;;21.57;51.01;101273.03;4964502;28;6977;-82
2022/07/11 02:43:40;;;;;;;;;;;;;;;21.54;50.74;101266.03;4947470;28;7141;-82
2022/07/11 02:46:05;;;;;;;;;;;;;;;21.48;51.10;101264.22;4962513;28;6946;-82
2022/07/11 02:48:32;;;;;;;;;;;;;;;21.45;51.35;101271.09;4977758;28;7340;-82
2022/07/11 02:50:58;;;;;;;;;;;;;;;21.39;51.85;101260.56;4976494;28;7105;-82
2022/07/11 02:53:24;;;;;;;;;;;;;;;21.37;52.06;101263.16;4977946;28;7253;-82
2022/07/11 02:55:49;;;;;;;;;;;;;;;21.38;52.07;101270.13;4980308;28;6943;-82
2022/07/11 02:58:15;;;;;;;;;;;;;;;21.39;52.44;101266.66;4950007;28;7234;-82
2022/07/11 03:00:41;;;;;;;;;;;;;;;21.39;52.30;101264.06;4976632;28;6772;-83
2022/07/11 03:03:06;;;;;;;;;;;;;;;21.41;52.39;101258.88;4934711;28;6949;-82
2022/07/11 03:05:32;;;;;;;;;;;;;;;21.42;52.49;101263.22;4957374;28;8577;-83
2022/07/11 03:07:57;;;;;;;;;;;;;;;21.44;52.73;101271.97;4942770;28;7183;-83
2022/07/11 03:10:23;;;;;;;;;;;;;;;21.43;52.85;101260.63;4970756;28;9017;-83
2022/07/11 03:12:50;;;;;;;;;;;;;;;21.45;52.47;101265.88;4978419;28;7151;-83
2022/07/11 03:15:16;;;;;;;;;;;;;;;21.47;52.68;101277.22;4979009;28;7201;-83
2022/07/11 03:17:42;;;;;;;;;;;;;;;21.46;52.52;101265.03;4963264;28;7211;-82
2022/07/11 03:20:09;;;;;;;;;;;;;;;21.46;52.87;101272.84;4976612;28;6963;-82
2022/07/11 03:22:35;;;;;;;;;;;;;;;21.49;52.72;101278.13;4951685;28;6843;-83
2022/07/11 03:25:05;;;;;;;;;;;;;;;21.49;52.79;101280.75;4942248;28;6945;-83
2022/07/11 03:27:31;;;;;;;;;;;;;;;21.53;52.81;101273.81;4969038;28;7039;-83
2022/07/11 03:29:57;;;;;;;;;;;;;;;21.55;52.88;101274.75;4973218;28;8113;-83
2022/07/11 03:32:23;;;;;;;;;;;;;;;21.56;53.09;101279.97;4949570;28;6936;-82
2022/07/11 03:37:34;;;;;;;;;;;;;;;21.60;52.63;101278.28;4955336;28;6808;-82
2022/07/11 03:40:00;;;;;;;;;;;;;;;21.61;52.85;101283.56;4935286;28;6983;-82
2022/07/11 03:42:26;;;;;;;;;;;;;;;21.63;52.82;101280.94;4960551;28;6967;-82
2022/07/11 03:44:52;;;;;;;;;;;;;;;21.65;52.84;101279.25;4947147;28;6884;-82
2022/07/11 03:47:18;;;;;;;;;;;;;;;21.66;52.43;101286.22;4952354;28;7041;-82
2022/07/11 03:49:44;;;;;;;;;;;;;;;21.65;52.61;101284.47;4969644;28;7077;-80
2022/07/11 03:52:09;;;;;;;;;;;;;;;21.64;52.82;101282.72;4943041;28;6903;-79
2022/07/11 03:54:35;;;;;;;;;;;;;;;21.64;52.72;101282.72;4971521;28;6776;-79
2022/07/11 03:57:01;;;;;;;;;;;;;;;21.62;52.74;101280.09;4935577;28;8752;-80
2022/07/11 03:59:26;;;;;;;;;;;;;;;21.63;52.83;101286.16;4961066;28;6792;-79
2022/07/11 04:01:52;;;;;;;;;;;;;;;21.60;52.81;101286.13;4940258;28;7440;-80
2022/07/11 04:04:17;;;;;;;;;;;;;;;21.54;52.81;101286.03;4932256;28;7089;-80
2022/07/11 04:06:44;;;;;;;;;;;;;;;21.44;52.67;101285.88;4945229;28;7142;-79
2022/07/11 04:09:10;;;;;;;;;;;;;;;21.40;52.90;101289.28;4961633;28;7269;-80
2022/07/11 04:11:36;;;;;;;;;;;;;;;21.34;52.96;101291.75;4927828;28;6958;-79
2022/07/11 04:14:02;;;;;;;;;;;;;;;21.29;53.23;101285.59;4969002;28;7748;-79
2022/07/11 04:16:28;;;;;;;;;;;;;;;21.21;53.23;101291.56;4966852;28;7611;-80
2022/07/11 04:18:53;;;;;;;;;;;;;;;21.19;53.43;101289.75;4955624;28;6944;-79
2022/07/11 04:21:19;;;;;;;;;;;;;;;21.18;53.83;101298.44;4967898;28;7008;-80
2022/07/11 04:23:45;;;;;;;;;;;;;;;21.19;54.24;101301.06;4962865;28;7267;-80
2022/07/11 04:26:10;;;;;;;;;;;;;;;21.21;53.89;101304.59;4927719;28;8506;-79
2022/07/11 04:28:36;;;;;;;;;;;;;;;21.23;54.21;101302.88;4942126;28;6968;-80
2022/07/11 04:31:02;;;;;;;;;;;;;;;21.26;54.27;101296.84;4971107;28;6959;-79
2022/07/11 04:33:28;;;;;;;;;;;;;;;21.30;54.46;101296.06;4968244;28;7733;-79
2022/07/11 04:35:54;;;;;;;;;;;;;;;21.33;54.46;101301.31;4977876;28;8706;-79
2022/07/11 04:38:21;;;;;;;;;;;;;;;21.37;54.29;101304.88;4931730;28;8460;-79
2022/07/11 04:40:48;;;;;;;;;;;;;;;21.42;54.40;101302.34;4952797;28;7231;-79
2022/07/11 04:43:14;;;;;;;;;;;;;;;21.43;54.31;101299.75;4971388;28;6800;-79
2022/07/11 04:45:40;;;;;;;;;;;;;;;21.46;54.27;101305.03;4938053;28;6780;-79
2022/07/11 04:48:06;;;;;;;;;;;;;;;21.50;54.24;101306.84;4962015;28;7709;-79
2022/07/11 04:50:32;;;;;;;;;;;;;;;21.53;53.99;101303.41;4977135;28;6937;-80
2022/07/11 04:52:57;;;;;;;;;;;;;;;21.56;54.28;101302.59;4935143;28;6975;-79
2022/07/11 04:55:23;;;;;;;;;;;;;;;21.56;54.08;101303.44;4977386;28;6783;-80
2022/07/11 04:57:50;;;;;;;;;;;;;;;21.62;54.22;101305.28;4976083;28;6788;-80
2022/07/11 05:00:16;;;;;;;;;;;;;;;21.66;53.97;101312.31;4975012;28;7174;-79
2022/07/11 05:02:42;;;;;;;;;;;;;;;21.70;53.89;101308.06;4961924;28;6940;-79
2022/07/11 05:05:08;;;;;;;;;;;;;;;21.77;54.18;101309.91;4969837;28;6950;-80
2022/07/11 05:07:33;;;;;;;;;;;;;;;21.88;54.38;101310.97;4978836;28;6921;-80
2022/07/11 05:09:59;;;;;;;;;;;;;;;22.01;54.33;101312.00;4968640;28;6958;-79
2022/07/11 05:12:25;;;;;;;;;;;;;;;22.15;53.78;101306.13;4968208;28;6960;-79
2022/07/11 05:14:50;;;;;;;;;;;;;;;22.27;53.76;101306.31;4983091;28;7433;-79
2022/07/11 05:17:16;;;;;;;;;;;;;;;22.42;53.50;101312.59;4963103;28;8493;-79
2022/07/11 05:19:42;;;;;;;;;;;;;;;22.49;53.16;101314.44;4938059;28;6992;-79
2022/07/11 05:22:07;;;;;;;;;;;;;;;22.56;52.79;101318.03;4967116;28;7170;-79
2022/07/11 05:24:33;;;;;;;;;;;;;;;22.60;52.68;101320.72;4979305;28;7237;-79
2022/07/11 05:26:58;;;;;;;;;;;;;;;22.66;52.75;101321.63;4983091;28;6760;-79
2022/07/11 05:29:24;;;;;;;;;;;;;;;22.68;52.64;101326.03;4950860;28;7028;-79
2022/07/11 05:31:50;;;;;;;;;;;;;;;22.70;52.12;101319.09;4951495;28;6808;-79
2022/07/11 05:34:17;;;;;;;;;;;;;;;22.71;52.51;101320.84;4977008;28;6792;-79
2022/07/11 05:36:43;;;;;;;;;;;;;;;22.73;52.35;101318.25;4976999;28;6811;-78
2022/07/11 05:39:09;;;;;;;;;;;;;;;22.77;52.22;101321.78;4980276;28;8633;-79
2022/07/11 05:41:34;;;;;;;;;;;;;;;22.78;51.74;101326.16;4980006;28;7277;-79
2022/07/11 05:44:00;;;;;;;;;;;;;;;22.76;51.49;101333.94;4934469;28;7373;-79
2022/07/11 05:46:26;;;;;;;;;;;;;;;22.72;51.94;101329.56;4976154;28;6836;-78
2022/07/11 05:48:51;;;;;;;;;;;;;;;22.68;51.71;101327.75;4963948;28;7023;-78
2022/07/11 05:51:18;;;;;;;;;;;;;;;22.69;52.42;101329.50;4962819;28;6780;-78
2022/07/11 05:53:44;;;;;;;;;;;;;;;22.72;52.11;101329.56;4963403;28;6792;-79
2022/07/11 05:56:10;;;;;;;;;;;;;;;22.72;52.47;101334.78;4977599;28;7178;-79
2022/07/11 05:58:36;;;;;;;;;;;;;;;22.76;51.77;101331.34;4962337;28;6768;-79
2022/07/11 06:01:01;;;;;;;;;;;;;;;22.74;52.07;101335.69;4976380;28;6988;-79
2022/07/11 06:03:27;;;;;;;;;;;;;;;22.73;51.87;101341.75;4950740;28;7268;-79
2022/07/11 06:05:53;;;;;;;;;;;;;;;22.74;52.09;101339.19;4973898;28;8129;-78
2022/07/11 06:11:03;;;;;;;;;;;;;;;22.84;52.08;101348.00;4962375;28;6788;-79
2022/07/11 06:13:31;;;;;;;;;;;;;;;22.91;52.06;101342.84;4959466;28;7229;-78
2022/07/11 06:15:57;;;;;;;;;;;;;;;23.00;52.37;101337.72;4976631;28;6825;-78
2022/07/11 06:18:23;;;;;;;;;;;;;;;23.09;52.14;101343.06;4955036;28;6998;-78
2022/07/11 06:20:50;;;;;;;;;;;;;;;23.19;51.90;101346.63;4975664;28;6964;-78
2022/07/11 06:23:15;;;;;;;;;;;;;;;23.25;51.65;101351.06;4943395;28;7797;-78
2022/07/11 06:25:41;;;;;;;;;;;;;;;23.30;51.83;101346.78;4952061;28;7181;-78
2022/07/11 06:28:07;;;;;;;;;;;;;;;23.40;52.24;101350.34;4950141;28;6844;-79
2022/07/11 06:30:33;;;;;;;;;;;;;;;23.53;52.24;101346.13;4979824;28;6996;-79
2022/07/11 06:32:58;;;;;;;;;;;;;;;23.64;51.30;101351.47;4949670;28;6828;-78
2022/07/11 06:35:24;;;;;;;;;;;;;;;23.73;51.12;101343.69;4976466;28;7121;-78
2022/07/11 06:37:50;;;;;;;;;;;;;;;23.79;50.87;101350.72;4961979;28;6816;-78
2022/07/11 06:40:17;;;;;;;;;;;;;;;23.80;50.44;101342.00;4946488;28;7210;-78
2022/07/11 06:42:45;;;;;;;;;;;;;;;23.83;50.53;101342.00;4980523;28;7862;-78
2022/07/11 06:45:11;;;;;;;;;;;;;;;23.84;50.36;101342.03;4965345;28;6888;-78
2022/07/11 06:47:37;;;;;;;;;;;;;;;23.86;50.23;101339.44;4956919;28;7216;-78
2022/07/11 06:50:03;;;;;;;;;;;;;;;23.89;49.98;101346.41;4942352;28;7205;-78
2022/07/11 06:52:29;;;;;;;;;;;;;;;23.88;50.25;101342.06;4978301;28;6792;-79
2022/07/11 06:54:54;;;;;;;;;;;;;;;23.86;50.18;101339.44;4953252;28;6926;-79
2022/07/11 06:57:20;;;;;;;;;;;;;;;23.87;50.20;101343.81;4964088;28;7191;-79
2022/07/11 06:59:46;;;;;;;;;;;;;;;23.88;50.45;101340.31;4955062;28;6784;-79
2022/07/11 07:02:11;;;;;;;;;;;;;;;23.90;50.27;101335.97;4976318;28;8040;-77
2022/07/11 07:04:37;;;;;;;;;;;;;;;23.93;49.95;101337.75;4950668;28;6848;-77
2022/07/11 07:07:03;;;;;;;;;;;;;;;23.97;50.35;101343.00;4958270;28;6788;-78
2022/07/11 07:09:29;;;;;;;;;;;;;;;23.99;50.20;101340.38;4979287;28;7204;-77
2022/07/11 07:11:55;;;;;;;;;;;;;;;24.00;50.33;101339.53;4978123;28;6939;-79
2022/07/11 07:14:22;;;;;;;;;;;;;;;24.00;50.04;101343.03;4967953;28;7891;-79
2022/07/11 07:16:47;;;;;;;;;;;;;;;24.03;50.53;101347.41;4965801;28;6974;-79
2022/07/11 07:19:13;;;;;;;;;;;;;;;24.07;50.46;101348.34;4947832;28;6995;-79
2022/07/11 07:21:41;;;;;;;;;;;;;;;24.12;49.90;101346.63;4978198;28;6812;-78
2022/07/11 07:24:06;;;;;;;;;;;;;;;24.17;49.71;101355.41;4942499;28;6804;-77
2022/07/11 07:26:32;;;;;;;;;;;;;;;24.23;49.51;101350.19;4971725;28;7013;-77
2022/07/11 07:28:59;;;;;;;;;;;;;;;24.29;49.47;101353.72;4970165;28;7243;-77
2022/07/11 07:31:25;;;;;;;;;;;;;;;24.28;49.34;101350.22;4956612;28;7279;-77
2022/07/11 07:33:51;;;;;;;;;;;;;;;24.24;49.25;101349.34;4943030;28;6946;-77
2022/07/11 07:36:16;;;;;;;;;;;;;;;24.18;49.00;101351.03;4975380;28;7194;-77
2022/07/11 07:38:46;;;;;;;;;;;;;;;24.16;49.10;101352.75;4953675;28;7197;-78
2022/07/11 07:41:13;;;;;;;;;;;;;;;24.11;49.08;101351.00;4967146;28;7106;-78
2022/07/11 07:43:39;;;;;;;;;;;;;;;24.08;49.47;101350.97;4961601;28;8419;-78
2022/07/11 07:46:08;;;;;;;;;;;;;;;24.06;49.40;101354.44;4961720;28;7178;-78
2022/07/11 07:48:34;;;;;;;;;;;;;;;24.06;49.08;101350.06;4947297;28;6993;-79
2022/07/11 07:50:59;;;;;;;;;;;;;;;24.03;49.24;101351.75;4979283;28;7192;-79
2022/07/11 07:53:25;;;;;;;;;;;;;;;23.96;49.62;101351.72;4969713;28;7141;-78
2022/07/11 07:55:51;;;;;;;;;;;;;;;23.91;49.62;101347.34;4952960;28;7012;-78
2022/07/11 07:58:17;;;;;;;;;;;;;;;23.90;49.66;101349.06;4945094;28;7149;-78
2022/07/11 08:03:27;;;;;;;;;;;;;;;23.98;49.82;101347.38;4948985;28;7107;-78
2022/07/11 08:05:52;;;;;;;;;;;;;;;24.05;49.95;101344.84;4979419;28;7215;-78
2022/07/11 08:08:18;;;;;;;;;;;;;;;24.13;49.66;101348.38;4979260;28;6848;-78
2022/07/11 08:10:43;;;;;;;;;;;;;;;24.19;50.00;101343.19;4972977;28;7034;-79
2022/07/11 08:13:09;;;;;;;;;;;;;;;24.23;49.33;101341.47;4934091;28;7313;-78
2022/07/11 08:15:34;;;;;;;;;;;;;;;24.24;49.22;101340.59;4944004;28;6991;-78
2022/07/11 08:18:00;;;;;;;;;;;;;;;24.25;48.81;101340.63;4965961;28;6966;-78
2022/07/11 08:20:26;;;;;;;;;;;;;;;24.22;48.97;101342.34;4977455;28;6764;-79
2022/07/11 08:22:51;;;;;;;;;;;;;;;24.16;48.66;101343.19;4983260;28;7169;-79
2022/07/11 08:25:17;;;;;;;;;;;;;;;24.07;49.50;101337.88;4966002;28;6950;-78
2022/07/11 08:27:43;;;;;;;;;;;;;;;24.03;48.93;101338.66;4956710;28;8459;-78
2022/07/11 08:30:10;;;;;;;;;;;;;;;23.99;49.67;101338.66;4959389;28;7423;-78
2022/07/11 08:32:40;;;;;;;;;;;;;;;23.98;49.32;101342.16;4942132;28;7196;-78
2022/07/11 08:35:07;;;;;;;;;;;;;;;24.01;49.68;101351.78;4976547;28;6792;-78
2022/07/11 08:37:33;;;;;;;;;;;;;;;24.03;49.64;101346.53;4947305;28;7931;-78
2022/07/11 08:39:58;;;;;;;;;;;;;;;24.05;49.79;101350.09;4952309;28;6991;-78
2022/07/11 08:42:30;;;;;;;;;;;;;;;24.11;49.19;101355.34;4952441;28;6756;-78
2022/07/11 08:44:57;;;;;;;;;;;;;;;24.12;49.51;101351.84;4934886;28;8820;-78
2022/07/11 08:47:24;;;;;;;;;;;;;;;24.07;49.59;101356.19;4949518;28;6992;-79
2022/07/11 08:49:51;;;;;;;;;;;;;;;23.99;49.00;101362.22;4974796;28;7178;-79
2022/07/11 08:52:19;;;;;;;;;;;;;;;23.89;49.81;101354.28;4979727;28;7220;-78
2022/07/11 08:54:45;;;;;;;;;;;;;;;23.83;50.16;101349.88;4975374;28;6968;-78
2022/07/11 08:57:13;;;;;;;;;;;;;;;23.84;49.79;101352.50;4974480;28;7172;-78
2022/07/11 08:59:41;;;;;;;;;;;;;;;23.89;50.49;101349.94;4967497;28;8746;-78
2022/07/11 09:02:10;;;;;;;;;;;;;;;24.01;50.65;101351.78;4947203;28;7208;-78
2022/07/11 09:04:35;;;;;;;;;;;;;;;24.17;50.57;101352.78;4964212;28;6987;-78
2022/07/11 09:07:02;;;;;;;;;;;;;;;24.34;50.05;101357.25;4975502;28;7168;-78
2022/07/11 09:09:31;;;;;;;;;;;;;;;24.43;49.52;101354.66;4978620;28;7007;-78
2022/07/11 09:11:58;;;;;;;;;;;;;;;24.50;49.40;101364.31;4975636;28;6984;-78
2022/07/11 09:14:25;;;;;;;;;;;;;;;24.58;49.94;101360.88;4948714;28;7223;-78
2022/07/11 09:17:03;;;;;;;;;;;;;;;24.68;49.48;101366.16;4977558;28;7162;-78
2022/07/11 09:19:37;;;;;;;;;;;;;;;24.78;49.19;101368.88;4948734;28;7264;-78
2022/07/11 09:25:21;;;;;;;;;;;;;;;24.86;48.57;101361.03;4944600;28;6956;-78
2022/07/11 09:28:00;;;;;;;;;;;;;;;24.88;48.68;101359.28;4943218;28;7413;-78
2022/07/11 09:30:31;;;;;;;;;;;;;;;24.89;48.33;101359.28;4939889;28;6820;-77
2022/07/11 09:32:59;;;;;;;;;;;;;;;24.91;48.50;101359.28;4971110;28;7093;-78
2022/07/11 09:35:35;;;;;;;;;;;;;;;24.89;48.15;101356.66;4958232;28;6974;-78
2022/07/11 09:38:10;;;;;;;;;;;;;;;24.84;48.21;101361.00;4945393;28;7019;-77
2022/07/11 09:40:38;;;;;;;;;;;;;;;24.82;48.56;101355.78;4930155;28;7277;-77
2022/07/11 09:43:05;;;;;;;;;;;;;;;24.87;48.81;101357.53;4972993;28;7235;-77
2022/07/11 09:45:33;;;;;;;;;;;;;;;25.00;48.54;101353.19;4958265;28;7217;-77
2022/07/11 09:48:09;;;;;;;;;;;;;;;25.14;48.78;101345.38;4940260;28;7226;-77
2022/07/11 09:50:35;;;;;;;;;;;;;;;25.34;49.17;101345.41;4946620;28;8429;-77
2022/07/11 09:53:06;;;;;;;;;;;;;;;25.55;48.59;101341.97;4972541;28;6844;-77
2022/07/11 09:55:38;;;;;;;;;;;;;;;25.75;48.13;101336.72;4938500;28;7391;-77
2022/07/11 09:58:09;;;;;;;;;;;;;;;25.91;47.46;101336.69;4934526;28;8402;-77
2022/07/11 10:00:38;;;;;;;;;;;;;;;26.03;47.58;101347.19;4962180;28;6784;-77
2022/07/11 10:03:06;;;;;;;;;;;;;;;26.18;47.44;101346.31;4949064;28;7251;-77
2022/07/11 10:05:33;;;;;;;;;;;;;;;26.27;47.25;101342.78;4979034;28;6784;-78
2022/07/11 10:08:00;;;;;;;;;;;;;;;26.31;46.57;101344.53;4952006;28;6803;-77
2022/07/11 10:10:27;;;;;;;;;;;;;;;26.30;46.65;101341.91;4967338;28;7286;-77
2022/07/11 10:12:55;;;;;;;;;;;;;;;26.28;46.02;101351.56;4957128;28;7908;-77
2022/07/11 10:15:34;;;;;;;;;;;;;;;26.24;45.80;101344.56;4947504;28;7031;-78
2022/07/11 10:18:02;;;;;;;;;;;;;;;26.10;45.54;101347.16;4934799;28;7312;-78
2022/07/11 10:20:58;;;;;;;;;;;;;;;26.03;45.93;101351.56;4963796;28;6780;-78
2022/07/11 10:23:58;;;;;;;;;;;;;;;26.05;46.26;101349.81;4966763;28;7092;-77
2022/07/11 10:26:42;;;;;;;;;;;;;;;26.09;46.42;101342.81;4954307;28;7047;-78
2022/07/11 10:29:36;;;;;;;;;;;;;;;26.22;46.72;101344.56;4965847;28;6876;-78
2022/07/11 10:32:07;;;;;;;;;;;;;;;26.33;45.87;101344.53;4961776;28;7062;-78
2022/07/11 10:34:33;;;;;;;;;;;;;;;26.40;45.90;101343.63;4943186;28;6800;-78
2022/07/11 10:37:05;;;;;;;;;;;;;;;26.50;45.72;101346.25;4935843;28;6957;-78
2022/07/11 10:39:34;;;;;;;;;;;;;;;26.53;45.13;101343.59;4952415;28;6800;-78
2022/07/11 10:42:04;;;;;;;;;;;;;;;26.57;45.44;101346.19;4954591;28;6804;-78
2022/07/11 10:44:53;;;;;;;;;;;;;;;26.61;45.62;101342.69;4947993;28;7202;-78
2022/07/11 10:47:41;;;;;;;;;;;;;;;26.63;45.36;101347.94;4951631;28;7869;-78
2022/07/11 10:50:40;;;;;;;;;;;;;;;26.62;45.39;101349.69;4950421;28;7244;-78
2022/07/11 10:53:11;;;;;;;;;;;;;;;26.57;44.88;101355.84;4953618;28;7015;-77
2022/07/11 10:56:02;;;;;;;;;;;;;;;26.54;44.77;101351.47;4937200;28;7159;-78
2022/07/11 10:58:32;;;;;;;;;;;;;;;26.51;44.98;101359.38;4965424;28;7055;-78
2022/07/11 11:01:09;;;;;;;;;;;;;;;26.41;44.42;101353.28;4976631;28;7218;-78
2022/07/11 11:03:35;;;;;;;;;;;;;;;26.29;44.76;101361.19;4981359;28;6864;-78
2022/07/11 11:06:01;;;;;;;;;;;;;;;26.21;44.89;101363.81;4968446;28;6818;-77
2022/07/11 11:08:36;;;;;;;;;;;;;;;26.17;45.15;101362.06;4973732;28;6788;-78
2022/07/11 11:11:06;;;;;;;;;;;;;;;26.15;45.43;101364.66;4944140;28;7085;-77
2022/07/11 11:13:35;;;;;;;;;;;;;;;26.16;45.68;101366.41;4949471;28;6976;-77
2022/07/11 11:16:18;;;;;;;;;;;;;;;26.19;45.61;101366.47;4951407;28;6936;-77
2022/07/11 11:18:44;;;;;;;;;;;;;;;26.19;45.06;101371.72;4973824;28;7272;-77
2022/07/11 11:21:15;;;;;;;;;;;;;;;26.14;45.04;101368.19;4977688;28;7204;-77
2022/07/11 11:23:44;;;;;;;;;;;;;;;26.05;45.01;101357.69;4961636;28;7027;-77
2022/07/11 11:26:15;;;;;;;;;;;;;;;25.97;45.48;101362.97;4940668;28;6994;-77
2022/07/11 11:29:02;;;;;;;;;;;;;;;25.91;45.32;101355.06;4973966;28;7599;-77
2022/07/11 11:31:30;;;;;;;;;;;;;;;25.81;45.45;101359.47;4950456;28;7237;-77
2022/07/11 11:34:02;;;;;;;;;;;;;;;25.73;45.55;101361.22;4948893;28;7179;-78
2022/07/11 11:36:30;;;;;;;;;;;;;;;25.65;45.60;101364.72;4958850;28;7246;-77
2022/07/11 11:38:56;;;;;;;;;;;;;;;25.59;46.42;101367.34;4935780;28;7200;-78
2022/07/11 11:41:31;;;;;;;;;;;;;;;25.55;46.22;101373.44;4949038;28;7659;-77
2022/07/11 11:44:00;;;;;;;;;;;;;;;25.51;46.65;101377.81;4961250;28;6982;-77
2022/07/11 11:46:28;;;;;;;;;;;;;;;25.45;46.93;101369.03;4972531;28;6979;-77
2022/07/11 11:49:00;;;;;;;;;;;;;;;25.47;46.76;101367.28;4949490;28;6887;-77
2022/07/11 11:51:32;;;;;;;;;;;;;;;25.48;46.49;101369.91;4973809;28;7082;-77
2022/07/11 11:54:02;;;;;;;;;;;;;;;25.51;46.64;101367.31;4971546;28;6820;-77
2022/07/11 11:56:36;;;;;;;;;;;;;;;25.49;46.69;101368.16;4972954;28;7463;-77
2022/07/11 11:59:07;;;;;;;;;;;;;;;25.49;47.10;101362.91;4959015;28;6808;-77
2022/07/11 12:01:41;;;;;;;;;;;;;;;25.50;46.74;101368.19;4958280;28;7218;-77
2022/07/11 12:04:10;;;;;;;;;;;;;;;25.54;46.92;101361.22;4943178;28;6971;-77
2022/07/11 12:06:49;;;;;;;;;;;;;;;25.63;47.06;101369.09;4971211;28;6822;-77
2022/07/11 12:09:18;;;;;;;;;;;;;;;25.73;47.16;101355.97;4948290;28;6899;-77
2022/07/11 12:11:47;;;;;;;;;;;;;;;25.86;47.03;101362.94;4975572;28;6800;-77
2022/07/11 12:14:15;;;;;;;;;;;;;;;26.01;46.82;101356.81;4958187;28;7060;-77
2022/07/11 12:16:46;;;;;;;;;;;;;;;26.18;46.34;101359.44;4971065;28;7189;-77
2022/07/11 12:19:19;;;;;;;;;;;;;;;26.30;46.01;101357.69;4960536;28;7078;-77
2022/07/11 12:21:48;;;;;;;;;;;;;;;26.43;45.96;101361.16;4963484;28;7000;-77
2022/07/11 12:24:26;;;;;;;;;;;;;;;26.48;45.51;101357.63;4948699;28;7093;-77
2022/07/11 12:26:52;;;;;;;;;;;;;;;26.47;45.00;101360.25;4945821;28;8522;-77
2022/07/11 12:29:27;;;;;;;;;;;;;;;26.51;45.40;101353.25;4975180;28;6956;-77
2022/07/11 12:32:01;;;;;;;;;;;;;;;26.62;45.68;101354.06;4933203;28;8531;-77
2022/07/11 12:34:35;;;;;;;;;;;;;;;26.82;45.53;101355.75;4952475;28;6898;-77
2022/07/11 12:37:16;;;;;;;;;;;;;;;27.02;45.60;101353.91;4962904;28;6985;-77
2022/07/11 12:40:03;;;;;;;;;;;;;;;27.23;45.01;101348.53;4973692;28;6966;-77
2022/07/11 12:42:34;;;;;;;;;;;;;;;27.35;44.51;101356.34;4934080;28;7017;-77
2022/07/11 12:45:09;;;;;;;;;;;;;;;27.42;44.37;101358.06;4944820;28;6788;-77
2022/07/11 12:47:38;;;;;;;;;;;;;;;27.45;43.97;101357.16;4944777;28;7126;-77
2022/07/11 12:50:20;;;;;;;;;;;;;;;27.44;43.99;101351.00;4960088;28;6896;-77
2022/07/11 12:52:52;;;;;;;;;;;;;;;27.43;44.17;101348.41;4948921;28;7078;-77
2022/07/11 12:55:35;;;;;;;;;;;;;;;27.44;44.18;101350.16;4968159;28;7429;-77
2022/07/11 12:58:05;;;;;;;;;;;;;;;27.45;43.87;101344.88;4949602;28;6963;-77
2022/07/11 13:00:34;;;;;;;;;;;;;;;27.48;44.04;101343.97;4973567;28;7214;-77
2022/07/11 13:02:59;;;;;;;;;;;;;;;27.53;43.74;101342.19;4945607;28;7000;-76
2022/07/11 13:05:25;;;;;;;;;;;;;;;27.58;43.43;101339.56;4950205;28;6768;-76